Terminal Aerodrome Forecast
Issued by NWS

Home | Current Version | Previous Version | Text Only | Print | Product List | Glossary On
Versions: 1 2 3 4 5 6 7 8 9 10 11 12 13 14 15 16 17 18 19 20 21 22 23 24 25 26 27 28 29 30 31 32 33 34 35 36 37 38 39 40 41 42 43 44
000
FTUS41 KBOX 250324 AAA
TAFBED
TAF AMD
KBED 250324Z 2503/2524 VRB03KT 3SM BR OVC004
     FM250600 00000KT P6SM OVC008
     FM250800 00000KT P6SM BKN010
     FM250900 00000KT 5SM BR BKN130
     FM251000 00000KT P6SM BKN150
     FM251600 26006KT P6SM FEW200=

USA.gov is the U.S. government's official web portal to all federal, state and local government web resources and services.